sensor_id;sensor_type;location;lat;lon;timestamp;P1;durP1;ratioP1;P2;durP2;ratioP2
27869;SDS011;15225;50.730;4.244;2023-03-30T18:19:44;8.00;;;2.13;;
27869;SDS011;15225;50.730;4.244;2023-03-30T18:22:09;7.15;;;2.42;;
27869;SDS011;15225;50.730;4.244;2023-03-30T18:24:35;11.73;;;2.55;;
27869;SDS011;15225;50.730;4.244;2023-03-30T18:27:01;6.85;;;2.47;;
27869;SDS011;15225;50.730;4.244;2023-03-30T18:29:27;11.55;;;3.42;;
27869;SDS011;15225;50.730;4.244;2023-03-30T18:31:54;11.15;;;2.80;;
27869;SDS011;15225;50.730;4.244;2023-03-30T18:34:20;10.23;;;2.10;;
27869;SDS011;15225;50.730;4.244;2023-03-30T18:36:45;12.93;;;2.78;;
27869;SDS011;15225;50.730;4.244;2023-03-30T18:39:17;17.48;;;3.28;;
27869;SDS011;15225;50.730;4.244;2023-03-30T18:41:47;10.82;;;3.55;;
27869;SDS011;15225;50.730;4.244;2023-03-30T18:44:13;9.82;;;2.80;;
27869;SDS011;15225;50.730;4.244;2023-03-30T18:46:39;11.30;;;2.67;;
27869;SDS011;15225;50.730;4.244;2023-03-30T18:49:06;8.13;;;2.60;;
27869;SDS011;15225;50.730;4.244;2023-03-30T18:51:36;10.95;;;3.25;;
27869;SDS011;15225;50.730;4.244;2023-03-30T18:54:02;16.30;;;3.28;;
27869;SDS011;15225;50.730;4.244;2023-03-30T18:56:27;14.77;;;2.92;;
27869;SDS011;15225;50.730;4.244;2023-03-30T18:58:53;10.55;;;2.25;;
27869;SDS011;15225;50.730;4.244;2023-03-30T19:01:19;23.48;;;3.65;;
27869;SDS011;15225;50.730;4.244;2023-03-30T19:03:44;19.83;;;3.13;;
27869;SDS011;15225;50.730;4.244;2023-03-30T19:06:11;17.80;;;3.25;;
27869;SDS011;15225;50.730;4.244;2023-03-30T19:08:39;13.25;;;2.83;;
27869;SDS011;15225;50.730;4.244;2023-03-30T19:11:07;10.93;;;2.85;;
27869;SDS011;15225;50.730;4.244;2023-03-30T19:13:33;16.38;;;3.20;;
27869;SDS011;15225;50.730;4.244;2023-03-30T19:15:58;12.48;;;2.70;;
27869;SDS011;15225;50.730;4.244;2023-03-30T19:18:28;15.93;;;3.58;;
27869;SDS011;15225;50.730;4.244;2023-03-30T19:20:53;13.98;;;2.78;;
27869;SDS011;15225;50.730;4.244;2023-03-30T19:23:19;19.88;;;4.13;;
27869;SDS011;15225;50.730;4.244;2023-03-30T19:25:45;17.63;;;3.13;;
27869;SDS011;15225;50.730;4.244;2023-03-30T19:28:12;16.17;;;3.35;;
27869;SDS011;15225;50.730;4.244;2023-03-30T19:30:39;12.88;;;3.25;;
27869;SDS011;15225;50.730;4.244;2023-03-30T19:33:06;11.13;;;2.63;;
27869;SDS011;15225;50.730;4.244;2023-03-30T19:35:33;18.45;;;3.55;;
27869;SDS011;15225;50.730;4.244;2023-03-30T19:37:59;10.43;;;2.42;;
27869;SDS011;15225;50.730;4.244;2023-03-30T19:40:25;13.10;;;3.25;;
27869;SDS011;15225;50.730;4.244;2023-03-30T19:42:51;16.60;;;4.05;;
27869;SDS011;15225;50.730;4.244;2023-03-30T19:45:18;12.82;;;3.30;;
27869;SDS011;15225;50.730;4.244;2023-03-30T19:47:45;15.15;;;3.47;;
27869;SDS011;15225;50.730;4.244;2023-03-30T19:50:11;12.65;;;3.13;;
27869;SDS011;15225;50.730;4.244;2023-03-30T19:52:40;11.63;;;3.25;;
27869;SDS011;15225;50.730;4.244;2023-03-30T19:55:07;9.65;;;3.28;;
27869;SDS011;15225;50.730;4.244;2023-03-30T19:57:34;11.77;;;3.20;;
27869;SDS011;15225;50.730;4.244;2023-03-30T20:00:02;12.35;;;3.03;;
27869;SDS011;15225;50.730;4.244;2023-03-30T20:02:36;16.67;;;3.08;;
27869;SDS011;15225;50.730;4.244;2023-03-30T20:05:05;17.70;;;3.95;;
27869;SDS011;15225;50.730;4.244;2023-03-30T20:07:33;13.80;;;2.78;;
27869;SDS011;15225;50.730;4.244;2023-03-30T20:10:00;11.45;;;3.30;;
27869;SDS011;15225;50.730;4.244;2023-03-30T20:12:25;11.85;;;3.28;;
27869;SDS011;15225;50.730;4.244;2023-03-30T20:14:51;10.63;;;3.42;;
27869;SDS011;15225;50.730;4.244;2023-03-30T20:17:17;10.13;;;3.38;;
27869;SDS011;15225;50.730;4.244;2023-03-30T20:19:45;13.70;;;4.00;;
27869;SDS011;15225;50.730;4.244;2023-03-30T20:22:11;12.60;;;4.18;;
27869;SDS011;15225;50.730;4.244;2023-03-30T20:24:37;11.45;;;4.25;;
27869;SDS011;15225;50.730;4.244;2023-03-30T20:27:03;12.02;;;4.32;;
27869;SDS011;15225;50.730;4.244;2023-03-30T20:29:29;13.73;;;4.25;;
27869;SDS011;15225;50.730;4.244;2023-03-30T20:31:55;12.63;;;4.57;;
27869;SDS011;15225;50.730;4.244;2023-03-30T20:34:22;15.15;;;4.28;;
27869;SDS011;15225;50.730;4.244;2023-03-30T20:36:48;14.98;;;5.20;;
27869;SDS011;15225;50.730;4.244;2023-03-30T20:39:14;13.32;;;5.38;;
27869;SDS011;15225;50.730;4.244;2023-03-30T20:41:40;17.02;;;6.65;;
27869;SDS011;15225;50.730;4.244;2023-03-30T20:44:07;14.07;;;6.88;;
27869;SDS011;15225;50.730;4.244;2023-03-30T20:46:38;16.65;;;7.30;;
27869;SDS011;15225;50.730;4.244;2023-03-30T20:49:07;19.63;;;7.53;;
27869;SDS011;15225;50.730;4.244;2023-03-30T20:51:34;13.52;;;6.65;;
27869;SDS011;15225;50.730;4.244;2023-03-30T20:54:01;13.73;;;5.80;;
27869;SDS011;15225;50.730;4.244;2023-03-30T20:56:27;14.35;;;5.93;;
27869;SDS011;15225;50.730;4.244;2023-03-30T20:58:53;12.98;;;5.93;;
27869;SDS011;15225;50.730;4.244;2023-03-30T21:01:24;12.70;;;6.00;;
27869;SDS011;15225;50.730;4.244;2023-03-30T21:03:56;15.70;;;5.97;;
27869;SDS011;15225;50.730;4.244;2023-03-30T21:06:24;13.30;;;6.03;;
27869;SDS011;15225;50.730;4.244;2023-03-30T21:08:51;15.27;;;6.38;;
27869;SDS011;15225;50.730;4.244;2023-03-30T21:11:19;12.95;;;6.05;;
27869;SDS011;15225;50.730;4.244;2023-03-30T21:13:46;14.18;;;6.82;;
27869;SDS011;15225;50.730;4.244;2023-03-30T21:16:14;18.13;;;7.38;;
27869;SDS011;15225;50.730;4.244;2023-03-30T21:18:40;13.82;;;5.78;;
27869;SDS011;15225;50.730;4.244;2023-03-30T21:21:06;12.07;;;5.22;;
27869;SDS011;15225;50.730;4.244;2023-03-30T21:23:32;10.07;;;4.03;;
27869;SDS011;15225;50.730;4.244;2023-03-30T21:26:00;8.32;;;3.47;;
27869;SDS011;15225;50.730;4.244;2023-03-30T21:28:28;9.15;;;3.60;;
27869;SDS011;15225;50.730;4.244;2023-03-30T21:30:57;8.25;;;3.25;;
27869;SDS011;15225;50.730;4.244;2023-03-30T21:33:26;7.90;;;2.88;;
27869;SDS011;15225;50.730;4.244;2023-03-30T21:35:53;7.18;;;2.95;;
27869;SDS011;15225;50.730;4.244;2023-03-30T21:38:21;10.85;;;2.85;;
27869;SDS011;15225;50.730;4.244;2023-03-30T21:40:54;7.40;;;2.63;;
27869;SDS011;15225;50.730;4.244;2023-03-30T21:43:25;10.27;;;2.88;;
27869;SDS011;15225;50.730;4.244;2023-03-30T21:45:53;9.10;;;3.10;;
27869;SDS011;15225;50.730;4.244;2023-03-30T21:48:21;8.63;;;2.63;;
27869;SDS011;15225;50.730;4.244;2023-03-30T21:50:47;7.55;;;2.25;;
27869;SDS011;15225;50.730;4.244;2023-03-30T21:53:13;8.40;;;2.45;;
27869;SDS011;15225;50.730;4.244;2023-03-30T21:55:40;7.32;;;2.55;;
27869;SDS011;15225;50.730;4.244;2023-03-30T21:58:06;12.02;;;2.95;;
27869;SDS011;15225;50.730;4.244;2023-03-30T22:00:32;8.00;;;2.65;;
27869;SDS011;15225;50.730;4.244;2023-03-30T22:02:58;10.82;;;2.97;;
27869;SDS011;15225;50.730;4.244;2023-03-30T22:05:24;5.50;;;2.35;;
27869;SDS011;15225;50.730;4.244;2023-03-30T22:07:51;7.65;;;2.28;;
27869;SDS011;15225;50.730;4.244;2023-03-30T22:10:16;14.45;;;2.88;;
27869;SDS011;15225;50.730;4.244;2023-03-30T22:12:42;11.02;;;2.83;;
27869;SDS011;15225;50.730;4.244;2023-03-30T22:15:08;11.07;;;2.10;;
27869;SDS011;15225;50.730;4.244;2023-03-30T22:17:34;6.95;;;2.03;;
27869;SDS011;15225;50.730;4.244;2023-03-30T22:20:06;11.63;;;2.35;;
27869;SDS011;15225;50.730;4.244;2023-03-30T22:22:34;9.02;;;2.20;;
27869;SDS011;15225;50.730;4.244;2023-03-30T22:25:00;11.18;;;2.38;;
27869;SDS011;15225;50.730;4.244;2023-03-30T22:27:25;13.13;;;2.88;;
27869;SDS011;15225;50.730;4.244;2023-03-30T22:29:51;15.25;;;2.95;;
27869;SDS011;15225;50.730;4.244;2023-03-30T22:32:17;14.95;;;2.72;;
27869;SDS011;15225;50.730;4.244;2023-03-30T22:34:44;7.07;;;2.20;;
